createdAt,value
2018-09-06T00:00:01.313Z,13.00
2018-09-06T00:05:06.020Z,13.00
2018-09-06T00:10:10.615Z,12.30
2018-09-06T00:15:14.207Z,12.70
2018-09-06T00:20:22.223Z,12.87
2018-09-06T00:25:25.919Z,12.43
2018-09-06T00:30:29.647Z,12.70
2018-09-06T00:35:35.290Z,12.87
2018-09-06T00:40:38.996Z,13.17
2018-09-06T00:45:42.644Z,13.63
2018-09-06T00:50:46.221Z,13.47
2018-09-06T00:55:49.790Z,12.30
2018-09-06T01:00:53.486Z,12.43
2018-09-06T01:05:57.287Z,13.40
2018-09-06T01:11:00.843Z,12.63
2018-09-06T01:16:04.583Z,13.07
2018-09-06T01:21:08.820Z,11.97
2018-09-06T01:26:12.350Z,12.50
2018-09-06T01:31:16.163Z,12.83
2018-09-06T01:36:25.027Z,11.60
2018-09-06T01:41:28.604Z,12.67
2018-09-06T01:46:39.549Z,12.87
2018-09-06T01:51:43.119Z,12.13
2018-09-06T01:56:46.668Z,13.10
2018-09-06T02:01:50.289Z,12.67
2018-09-06T02:06:53.906Z,11.97
2018-09-06T02:11:57.448Z,13.37
2018-09-06T02:17:01.507Z,12.63
2018-09-06T02:22:05.326Z,12.17
2018-09-06T02:27:08.902Z,12.97
2018-09-06T02:32:13.030Z,11.80
2018-09-06T02:37:16.628Z,12.03
2018-09-06T02:42:20.174Z,12.30
2018-09-06T02:47:23.899Z,12.20
2018-09-06T02:52:28.479Z,12.13
2018-09-06T02:57:32.123Z,12.53
2018-09-06T03:02:35.835Z,12.57
2018-09-06T03:07:39.447Z,12.20
2018-09-06T03:12:43.179Z,13.67
2018-09-06T03:17:46.762Z,15.07
2018-09-06T03:22:50.320Z,14.57
2018-09-06T03:27:53.877Z,14.57
2018-09-06T03:33:04.962Z,14.40
2018-09-06T03:38:08.522Z,14.10
2018-09-06T03:43:13.111Z,14.23
2018-09-06T03:48:16.686Z,13.40
2018-09-06T03:53:21.382Z,13.80
2018-09-06T03:58:25.006Z,14.60
2018-09-06T04:03:28.586Z,13.93
2018-09-06T04:08:32.141Z,13.90
2018-09-06T04:13:40.520Z,13.73
2018-09-06T04:18:44.135Z,13.97
2018-09-06T04:23:47.779Z,12.87
2018-09-06T04:28:51.318Z,13.50
2018-09-06T04:33:54.996Z,14.80
2018-09-06T04:38:58.548Z,15.43
2018-09-06T04:44:02.154Z,16.63
2018-09-06T04:49:05.782Z,16.47
2018-09-06T04:54:09.353Z,17.50
2018-09-06T04:59:12.903Z,16.90
2018-09-06T05:04:18.607Z,18.10
2018-09-06T05:09:22.393Z,19.43
2018-09-06T05:14:26.026Z,22.23
2018-09-06T05:19:29.691Z,26.57
2018-09-06T05:24:33.219Z,31.97
2018-09-06T05:29:36.754Z,30.60
2018-09-06T05:34:40.766Z,29.97
2018-09-06T05:39:44.306Z,27.53
2018-09-06T05:44:52.709Z,27.23
2018-09-06T05:49:56.355Z,30.13
2018-09-06T05:55:01.081Z,31.53
2018-09-06T06:00:09.959Z,36.60
2018-09-06T06:05:13.934Z,19.90
2018-09-06T06:10:18.711Z,21.70
2018-09-06T06:15:22.453Z,30.97
2018-09-06T06:20:25.988Z,34.03
2018-09-06T06:25:29.598Z,37.53
2018-09-06T06:30:33.176Z,38.20
2018-09-06T06:35:36.765Z,38.60
2018-09-06T06:40:40.453Z,38.33
2018-09-06T06:45:44.083Z,44.63
2018-09-06T06:50:49.701Z,45.57
2018-09-06T06:55:53.267Z,43.30
2018-09-06T07:00:56.938Z,46.17
2018-09-06T07:06:02.662Z,43.47
2018-09-06T07:11:06.327Z,40.90
2018-09-06T07:16:10.134Z,39.00
2018-09-06T07:21:13.747Z,40.43
2018-09-06T07:26:19.378Z,39.03
2018-09-06T07:31:26.318Z,38.43
2018-09-06T07:36:29.899Z,38.57
2018-09-06T07:41:34.550Z,38.13
2018-09-06T07:46:41.833Z,36.23
2018-09-06T07:51:45.344Z,31.83
2018-09-06T07:56:48.946Z,25.20
2018-09-06T08:01:52.657Z,26.50
2018-09-06T08:06:56.328Z,26.60
2018-09-06T08:12:00.064Z,25.27
2018-09-06T08:17:03.946Z,25.50
2018-09-06T08:22:07.563Z,23.63
2018-09-06T08:27:11.405Z,23.87
2018-09-06T08:32:15.067Z,28.03
2018-09-06T08:37:18.798Z,26.87
2018-09-06T08:42:22.469Z,25.53
2018-09-06T08:47:28.200Z,22.70
2018-09-06T08:52:35.852Z,23.07
2018-09-06T08:57:39.637Z,24.90
2018-09-06T09:02:43.978Z,22.97
2018-09-06T09:07:51.995Z,22.57
2018-09-06T09:12:56.672Z,23.13
2018-09-06T09:18:11.985Z,23.57
2018-09-06T09:23:25.850Z,25.07
2018-09-06T09:28:34.923Z,24.47
2018-09-06T09:33:44.274Z,24.03
2018-09-06T09:38:48.122Z,23.13
2018-09-06T09:43:55.250Z,24.67
2018-09-06T09:48:58.861Z,23.20
2018-09-06T09:54:03.267Z,20.93
2018-09-06T09:59:10.740Z,22.23
2018-09-06T10:04:19.943Z,22.30
2018-09-06T10:09:28.530Z,21.87
2018-09-06T10:14:36.674Z,23.33
2018-09-06T10:19:42.025Z,22.73
2018-09-06T10:24:46.830Z,22.23
2018-09-06T10:30:04.872Z,24.83
2018-09-06T10:35:14.241Z,23.77
2018-09-06T10:40:17.938Z,24.00
2018-09-06T10:45:21.734Z,21.30
2018-09-06T10:50:26.494Z,20.57
2018-09-06T10:55:31.233Z,21.70
2018-09-06T11:00:41.781Z,19.63
2018-09-06T11:05:52.368Z,18.93
2018-09-06T11:10:58.332Z,18.07
2018-09-06T11:16:03.121Z,18.97
2018-09-06T11:21:06.973Z,20.43
2018-09-06T11:26:11.734Z,18.10
2018-09-06T11:31:15.594Z,16.57
2018-09-06T11:36:20.508Z,17.20
2018-09-06T11:41:26.390Z,15.50
2018-09-06T11:46:31.101Z,13.10
2018-09-06T11:51:35.910Z,12.63
2018-09-06T11:56:39.634Z,13.20
2018-09-06T12:01:43.371Z,14.47
2018-09-06T12:06:47.146Z,14.13
2018-09-06T12:11:50.762Z,13.80
2018-09-06T12:16:55.254Z,13.90
2018-09-06T12:21:59.167Z,12.17
2018-09-06T12:27:02.870Z,12.27
2018-09-06T12:32:06.706Z,14.03
2018-09-06T12:37:13.249Z,12.63
2018-09-06T12:42:28.928Z,11.30
2018-09-06T12:47:53.013Z,11.90
2018-09-06T12:52:57.641Z,11.67
2018-09-06T12:58:09.256Z,11.90
2018-09-06T13:03:12.819Z,11.63
2018-09-06T13:08:16.421Z,11.27
2018-09-06T13:13:22.062Z,10.80
2018-09-06T13:18:29.891Z,10.37
2018-09-06T13:23:36.840Z,10.57
2018-09-06T13:28:40.550Z,11.10
2018-09-06T13:33:45.912Z,10.00
2018-09-06T13:39:05.173Z,10.20
2018-09-06T13:44:09.526Z,9.80
2018-09-06T13:49:13.110Z,9.90
2018-09-06T13:54:16.750Z,8.83
2018-09-06T13:59:20.410Z,9.50
2018-09-06T14:04:23.950Z,9.60
2018-09-06T14:09:27.778Z,8.87
2018-09-06T14:14:33.641Z,9.03
2018-09-06T14:24:53.106Z,12.37
2018-09-06T14:29:56.654Z,11.63
2018-09-06T14:35:02.430Z,11.13
2018-09-06T14:40:06.241Z,12.10
2018-09-06T14:45:09.884Z,11.03
2018-09-06T14:50:13.456Z,12.30
2018-09-06T14:55:17.100Z,12.33
2018-09-06T15:00:21.950Z,11.40
2018-09-06T15:05:25.738Z,12.07
2018-09-06T15:10:40.838Z,10.77
2018-09-06T15:15:44.443Z,10.80
2018-09-06T15:20:48.057Z,11.23
2018-09-06T15:25:59.879Z,11.07
2018-09-06T15:31:05.630Z,11.53
2018-09-06T15:36:16.738Z,12.00
2018-09-06T15:41:27.793Z,11.20
2018-09-06T15:46:32.546Z,11.07
2018-09-06T15:51:36.119Z,11.10
2018-09-06T15:56:39.742Z,10.70
2018-09-06T16:01:43.347Z,9.77
2018-09-06T16:06:46.862Z,11.70
2018-09-06T16:11:50.474Z,12.13
2018-09-06T16:16:54.032Z,14.07
2018-09-06T16:21:57.903Z,13.30
2018-09-06T16:27:01.503Z,12.47
2018-09-06T16:32:05.020Z,13.97
2018-09-06T16:37:09.161Z,15.30
2018-09-06T16:42:12.662Z,17.43
2018-09-06T16:47:16.286Z,16.80
2018-09-06T16:52:20.057Z,18.03
2018-09-06T16:57:23.626Z,21.93
2018-09-06T17:02:29.362Z,26.47
2018-09-06T17:07:32.982Z,28.97
2018-09-06T17:12:41.443Z,29.47
2018-09-06T17:17:45.202Z,35.40
2018-09-06T17:22:48.809Z,32.73
2018-09-06T17:27:52.355Z,33.77
2018-09-06T17:32:56.027Z,33.07
2018-09-06T17:37:59.530Z,33.60
2018-09-06T17:43:03.191Z,33.07
2018-09-06T17:48:07.030Z,33.67
2018-09-06T17:53:22.701Z,32.90
2018-09-06T17:58:26.438Z,32.47
2018-09-06T18:03:30.354Z,31.07
2018-09-06T18:08:42.045Z,32.07
2018-09-06T18:13:47.646Z,33.13
2018-09-06T18:18:51.423Z,33.47
2018-09-06T18:23:56.594Z,34.53
2018-09-06T18:29:00.222Z,33.60
2018-09-06T18:34:03.880Z,30.53
2018-09-06T18:39:07.727Z,29.93
2018-09-06T18:44:11.265Z,29.77
2018-09-06T18:49:14.986Z,31.83
2018-09-06T18:54:18.614Z,31.20
2018-09-06T18:59:22.470Z,32.17
2018-09-06T19:04:28.810Z,33.87
2018-09-06T19:09:32.500Z,32.00
2018-09-06T19:14:36.254Z,32.30
2018-09-06T19:19:49.743Z,32.23
2018-09-06T19:24:53.686Z,32.90
2018-09-06T19:30:00.948Z,31.57
2018-09-06T19:35:04.832Z,31.10
2018-09-06T19:40:09.616Z,32.70
2018-09-06T19:45:15.374Z,29.70
2018-09-06T19:50:19.142Z,33.33
2018-09-06T19:55:42.916Z,31.77
2018-09-06T20:00:46.604Z,30.87
2018-09-06T20:05:50.454Z,32.73
2018-09-06T20:10:54.323Z,35.13
2018-09-06T20:15:58.082Z,36.50
2018-09-06T20:21:06.922Z,35.40
2018-09-06T20:26:10.678Z,35.83
2018-09-06T20:31:20.834Z,34.43
2018-09-06T20:36:24.418Z,32.13
2018-09-06T20:41:29.103Z,33.90
2018-09-06T20:46:32.914Z,34.00
2018-09-06T20:51:36.716Z,37.83
2018-09-06T20:56:45.241Z,32.93
2018-09-06T21:01:54.922Z,34.03
2018-09-06T21:07:09.778Z,34.50
2018-09-06T21:12:13.363Z,34.77
2018-09-06T21:17:19.194Z,37.13
2018-09-06T21:22:23.939Z,34.77
2018-09-06T21:27:27.522Z,40.17
2018-09-06T21:32:36.974Z,39.67
2018-09-06T21:37:45.414Z,36.17
2018-09-06T21:43:13.332Z,37.90
2018-09-06T21:48:16.986Z,38.30
2018-09-06T21:53:22.834Z,38.90
2018-09-06T21:58:27.506Z,38.50
2018-09-06T22:03:38.604Z,39.73
2018-09-06T22:08:45.388Z,37.77
2018-09-06T22:13:52.008Z,38.77
2018-09-06T22:18:57.241Z,36.53
2018-09-06T22:24:00.935Z,36.43
2018-09-06T22:29:05.585Z,35.20
2018-09-06T22:34:14.057Z,35.47
2018-09-06T22:39:17.640Z,36.13
2018-09-06T22:44:21.191Z,33.77
2018-09-06T22:49:24.823Z,33.87
2018-09-06T22:54:28.618Z,32.43
2018-09-06T22:59:32.174Z,32.37
2018-09-06T23:04:35.723Z,34.17
2018-09-06T23:09:44.857Z,32.67
2018-09-06T23:14:48.454Z,33.17
2018-09-06T23:19:51.997Z,31.27
2018-09-06T23:24:55.638Z,34.37
2018-09-06T23:30:03.409Z,31.60
2018-09-06T23:35:07.114Z,31.53
2018-09-06T23:40:11.842Z,31.47
2018-09-06T23:45:15.435Z,31.77
2018-09-06T23:50:19.068Z,33.80
2018-09-06T23:55:22.845Z,31.60
